Time;durP1;ratioP1;P1;durP2;ratioP2;P2;SDS_P1;SDS_P2;PMS_P1;PMS_P2;Temp;Humidity;BMP_temperature;BMP_pressure;BME280_temperature;BME280_humidity;BME280_pressure;Samples;Min_cycle;Max_cycle;Signal;HPM_P1;HPM_P2
2022/10/21 00:02:15;;;;;;;77.75;33.35;;;;;;;;;;5044916;28;20589;-73
2022/10/21 00:04:40;;;;;;;73.75;32.92;;;;;;;;;;5044604;28;20565;-74
2022/10/21 00:07:06;;;;;;;79.57;34.53;;;;;;;;;;5032377;28;20656;-74
2022/10/21 00:09:31;;;;;;;79.93;33.88;;;;;;;;;;5044899;28;20185;-75
2022/10/21 00:11:56;;;;;;;69.82;33.00;;;;;;;;;;5039863;28;20185;-74
2022/10/21 00:14:22;;;;;;;65.43;32.53;;;;;;;;;;5029560;28;20268;-74
2022/10/21 00:16:47;;;;;;;65.68;32.03;;;;;;;;;;5043492;28;20271;-75
2022/10/21 00:19:12;;;;;;;81.40;32.00;;;;;;;;;;5037014;28;20185;-74
2022/10/21 00:21:39;;;;;;;74.57;32.58;;;;;;;;;;5028742;28;20597;-73
2022/10/21 00:24:05;;;;;;;72.50;33.33;;;;;;;;;;5038453;28;20173;-73
2022/10/21 00:26:30;;;;;;;71.22;31.58;;;;;;;;;;5033410;28;20203;-73
2022/10/21 00:28:56;;;;;;;66.28;30.60;;;;;;;;;;5036413;28;20201;-73
2022/10/21 00:31:22;;;;;;;77.22;32.00;;;;;;;;;;5047659;28;20193;-73
2022/10/21 00:33:48;;;;;;;73.53;32.80;;;;;;;;;;5033033;28;20217;-73
2022/10/21 00:36:14;;;;;;;71.70;31.08;;;;;;;;;;5039752;28;20188;-72
2022/10/21 00:38:40;;;;;;;68.93;31.00;;;;;;;;;;5033269;28;20213;-72
2022/10/21 00:41:06;;;;;;;68.93;30.20;;;;;;;;;;5028169;28;20602;-72
2022/10/21 00:43:31;;;;;;;69.50;31.50;;;;;;;;;;5031782;28;20178;-72
2022/10/21 00:46:01;;;;;;;67.03;29.92;;;;;;;;;;5031923;28;20194;-72
2022/10/21 00:48:38;;;;;;;75.18;31.75;;;;;;;;;;5036813;28;20182;-71
2022/10/21 00:51:11;;;;;;;66.88;30.02;;;;;;;;;;5029100;28;20190;-71
2022/10/21 00:53:41;;;;;;;65.10;30.55;;;;;;;;;;5041114;28;20259;-72
2022/10/21 00:56:11;;;;;;;65.50;30.40;;;;;;;;;;5024421;28;20186;-72
2022/10/21 00:58:36;;;;;;;66.72;31.10;;;;;;;;;;5028935;28;20178;-72
2022/10/21 01:01:05;;;;;;;70.78;30.65;;;;;;;;;;5033762;28;20208;-72
2022/10/21 01:03:32;;;;;;;72.65;31.45;;;;;;;;;;5036051;28;20174;-72
2022/10/21 01:06:01;;;;;;;69.75;30.77;;;;;;;;;;5028598;28;20174;-72
2022/10/21 01:08:28;;;;;;;77.57;30.80;;;;;;;;;;5037028;28;20186;-72
2022/10/21 01:10:53;;;;;;;63.03;29.88;;;;;;;;;;5034289;28;20178;-72
2022/10/21 01:13:24;;;;;;;68.72;29.77;;;;;;;;;;5028851;28;20346;-72
2022/10/21 01:16:10;;;;;;;59.45;28.65;;;;;;;;;;5031129;28;20174;-72
2022/10/21 01:18:49;;;;;;;70.65;28.90;;;;;;;;;;5036352;28;20266;-73
2022/10/21 01:21:25;;;;;;;72.07;30.30;;;;;;;;;;5033646;28;20629;-74
2022/10/21 01:24:23;;;;;;;75.10;31.92;;;;;;;;;;5050926;28;20604;-73
2022/10/21 01:27:16;;;;;;;76.45;30.80;;;;;;;;;;5046748;28;20661;-74
2022/10/21 01:30:13;;;;;;;64.72;30.23;;;;;;;;;;5034228;28;20272;-71
2022/10/21 01:32:44;;;;;;;79.40;30.70;;;;;;;;;;5039108;28;20230;-71
2022/10/21 01:35:19;;;;;;;89.03;32.97;;;;;;;;;;5031878;28;20190;-73
2022/10/21 01:38:13;;;;;;;61.05;28.38;;;;;;;;;;5048035;28;20783;-72
2022/10/21 01:40:57;;;;;;;68.55;30.20;;;;;;;;;;5038872;28;20251;-74
2022/10/21 01:43:29;;;;;;;79.90;30.55;;;;;;;;;;5037258;28;20170;-73
2022/10/21 01:46:01;;;;;;;67.85;29.30;;;;;;;;;;5033088;28;20186;-72
2022/10/21 01:48:39;;;;;;;67.25;29.38;;;;;;;;;;5045223;28;20182;-72
2022/10/21 01:51:06;;;;;;;71.00;31.05;;;;;;;;;;5047646;28;20272;-71
2022/10/21 01:54:06;;;;;;;84.55;30.73;;;;;;;;;;5036800;28;20669;-72
2022/10/21 01:56:32;;;;;;;70.03;30.60;;;;;;;;;;5041900;28;20197;-72
2022/10/21 01:58:59;;;;;;;78.35;31.10;;;;;;;;;;5051161;28;20264;-72
2022/10/21 02:01:24;;;;;;;76.25;29.77;;;;;;;;;;5038820;28;20181;-73
2022/10/21 02:03:55;;;;;;;81.75;30.63;;;;;;;;;;5034564;28;20186;-74
2022/10/21 02:06:21;;;;;;;80.05;30.05;;;;;;;;;;5036218;28;20297;-74
2022/10/21 02:08:46;;;;;;;98.10;31.85;;;;;;;;;;5040997;28;20193;-74
2022/10/21 02:11:13;;;;;;;136.13;35.03;;;;;;;;;;5044358;28;20600;-74
2022/10/21 02:13:45;;;;;;;92.57;30.08;;;;;;;;;;5041546;28;20667;-74
2022/10/21 02:16:14;;;;;;;106.88;33.05;;;;;;;;;;5041832;28;20299;-74
2022/10/21 02:18:39;;;;;;;84.82;28.45;;;;;;;;;;5034957;28;20182;-73
2022/10/21 02:21:11;;;;;;;82.13;30.08;;;;;;;;;;5038995;28;20185;-73
2022/10/21 02:24:13;;;;;;;102.78;30.75;;;;;;;;;;5034368;28;20179;-73
2022/10/21 02:26:38;;;;;;;116.35;30.73;;;;;;;;;;5039419;28;20208;-73
2022/10/21 02:29:04;;;;;;;164.02;33.53;;;;;;;;;;5039880;28;20190;-73
2022/10/21 02:31:44;;;;;;;112.85;30.73;;;;;;;;;;5034433;28;20616;-72
2022/10/21 02:34:26;;;;;;;60.20;27.80;;;;;;;;;;5048752;28;20209;-72
2022/10/21 02:37:00;;;;;;;81.20;28.40;;;;;;;;;;5044363;28;20634;-72
2022/10/21 02:39:40;;;;;;;80.47;28.40;;;;;;;;;;5037798;28;20323;-72
2022/10/21 02:42:10;;;;;;;96.38;29.60;;;;;;;;;;5045598;28;20186;-72
2022/10/21 02:44:36;;;;;;;125.80;29.58;;;;;;;;;;5040465;28;20181;-71
2022/10/21 02:47:03;;;;;;;196.40;31.75;;;;;;;;;;5047327;28;20182;-71
2022/10/21 02:49:28;;;;;;;473.60;40.13;;;;;;;;;;5035199;28;20711;-71
2022/10/21 02:51:53;;;;;;;268.77;30.38;;;;;;;;;;5033290;28;20264;-71
2022/10/21 02:54:19;;;;;;;152.48;26.23;;;;;;;;;;5042689;28;20212;-71
2022/10/21 02:56:44;;;;;;;146.75;26.05;;;;;;;;;;5040162;28;20642;-71
2022/10/21 02:59:10;;;;;;;456.90;39.45;;;;;;;;;;5035399;28;20260;-71
2022/10/21 03:01:35;;;;;;;319.70;29.48;;;;;;;;;;5035619;28;20184;-71
2022/10/21 03:04:00;;;;;;;446.60;34.55;;;;;;;;;;5040775;28;20188;-70
2022/10/21 03:06:26;;;;;;;418.45;36.20;;;;;;;;;;5034348;28;20281;-70
2022/10/21 03:08:51;;;;;;;198.07;27.15;;;;;;;;;;5041812;28;20555;-71
2022/10/21 03:11:16;;;;;;;187.80;26.08;;;;;;;;;;5046287;28;20232;-71
2022/10/21 03:13:42;;;;;;;107.00;25.55;;;;;;;;;;5043840;28;20255;-71
2022/10/21 03:16:07;;;;;;;80.10;25.08;;;;;;;;;;5033198;28;20676;-71
2022/10/21 03:18:32;;;;;;;79.22;24.98;;;;;;;;;;5039176;28;20732;-71
2022/10/21 03:20:58;;;;;;;95.03;26.33;;;;;;;;;;5031657;28;20192;-71
2022/10/21 03:23:23;;;;;;;107.18;28.88;;;;;;;;;;5047022;28;20177;-71
2022/10/21 03:25:49;;;;;;;118.63;31.80;;;;;;;;;;5038312;28;20196;-71
2022/10/21 03:28:14;;;;;;;101.32;30.30;;;;;;;;;;5036299;28;20183;-71
2022/10/21 03:30:40;;;;;;;131.73;32.45;;;;;;;;;;5038571;28;20216;-71
2022/10/21 03:33:05;;;;;;;127.13;30.90;;;;;;;;;;5034931;28;20238;-72
2022/10/21 03:35:30;;;;;;;108.32;29.13;;;;;;;;;;5031932;28;20194;-71
2022/10/21 03:37:56;;;;;;;89.45;26.17;;;;;;;;;;5038374;28;20177;-71
2022/10/21 03:40:22;;;;;;;64.63;26.63;;;;;;;;;;5038474;28;20178;-71
2022/10/21 03:42:48;;;;;;;101.65;26.73;;;;;;;;;;5042750;28;20733;-71
2022/10/21 03:45:14;;;;;;;76.68;27.08;;;;;;;;;;5043414;28;20189;-70
2022/10/21 03:47:39;;;;;;;88.57;28.83;;;;;;;;;;5030036;28;20190;-70
2022/10/21 03:50:06;;;;;;;83.55;26.55;;;;;;;;;;5039306;28;20242;-71
2022/10/21 03:52:31;;;;;;;85.20;27.75;;;;;;;;;;5039113;28;20202;-70
2022/10/21 03:54:57;;;;;;;89.88;27.25;;;;;;;;;;5038566;28;20184;-70
2022/10/21 03:57:22;;;;;;;90.63;25.77;;;;;;;;;;5034338;28;20541;-70
2022/10/21 03:59:47;;;;;;;89.85;26.60;;;;;;;;;;5033980;28;20190;-70
2022/10/21 04:02:13;;;;;;;84.55;28.95;;;;;;;;;;5042636;28;20482;-70
2022/10/21 04:04:38;;;;;;;86.30;27.83;;;;;;;;;;5038756;28;20679;-70
2022/10/21 04:07:04;;;;;;;106.63;29.10;;;;;;;;;;5034814;28;20189;-70
2022/10/21 04:09:29;;;;;;;82.30;27.38;;;;;;;;;;5040035;28;20606;-70
2022/10/21 04:11:54;;;;;;;88.25;27.52;;;;;;;;;;5045581;28;20185;-70
2022/10/21 04:14:20;;;;;;;77.80;26.20;;;;;;;;;;5033281;28;20177;-70
2022/10/21 04:16:45;;;;;;;92.28;26.98;;;;;;;;;;5046544;28;20216;-70
2022/10/21 04:19:16;;;;;;;84.70;27.40;;;;;;;;;;5034933;28;20178;-70
2022/10/21 04:21:42;;;;;;;90.15;26.15;;;;;;;;;;5040187;28;20181;-70
2022/10/21 04:24:07;;;;;;;157.98;30.50;;;;;;;;;;5032698;28;20574;-70
2022/10/21 04:26:33;;;;;;;61.33;21.58;;;;;;;;;;5027860;28;20186;-70
2022/10/21 04:28:58;;;;;;;81.68;23.90;;;;;;;;;;5043639;28;20212;-70
2022/10/21 04:31:24;;;;;;;96.50;25.38;;;;;;;;;;5046956;28;20217;-70
2022/10/21 04:33:50;;;;;;;119.40;27.00;;;;;;;;;;5041162;28;20308;-71
2022/10/21 04:36:16;;;;;;;61.40;22.60;;;;;;;;;;5033386;28;20186;-70
2022/10/21 04:38:41;;;;;;;63.30;24.00;;;;;;;;;;5033269;28;20186;-71
2022/10/21 04:41:07;;;;;;;69.43;24.15;;;;;;;;;;5028768;28;20663;-71
2022/10/21 04:43:32;;;;;;;67.72;27.40;;;;;;;;;;5042702;28;20555;-70
2022/10/21 04:45:57;;;;;;;72.00;27.98;;;;;;;;;;5029757;28;20599;-70
2022/10/21 04:48:23;;;;;;;65.13;27.35;;;;;;;;;;5031741;28;20661;-70
2022/10/21 04:50:50;;;;;;;79.57;29.83;;;;;;;;;;5036630;28;20185;-70
2022/10/21 04:53:15;;;;;;;89.97;30.40;;;;;;;;;;5036829;28;20571;-70
2022/10/21 04:55:41;;;;;;;79.43;29.42;;;;;;;;;;5031007;28;20174;-70
2022/10/21 04:58:06;;;;;;;95.18;31.70;;;;;;;;;;5030469;28;20196;-70
2022/10/21 05:00:32;;;;;;;79.60;31.92;;;;;;;;;;5033171;28;20196;-70
2022/10/21 05:02:58;;;;;;;94.45;32.28;;;;;;;;;;5028919;28;20286;-70
2022/10/21 05:05:23;;;;;;;78.60;32.13;;;;;;;;;;5034840;28;20186;-70
2022/10/21 05:07:48;;;;;;;88.05;31.95;;;;;;;;;;5032278;28;20592;-71
2022/10/21 05:10:14;;;;;;;97.15;34.88;;;;;;;;;;5041721;28;20540;-70
2022/10/21 05:12:39;;;;;;;86.70;31.83;;;;;;;;;;5029164;28;20210;-70
2022/10/21 05:15:05;;;;;;;86.90;32.47;;;;;;;;;;5040326;28;20181;-70
2022/10/21 05:17:30;;;;;;;84.25;31.60;;;;;;;;;;5034874;28;20251;-70
2022/10/21 05:19:55;;;;;;;78.35;31.45;;;;;;;;;;5031171;28;20560;-70
2022/10/21 05:22:21;;;;;;;84.95;33.65;;;;;;;;;;5029793;28;20269;-70
2022/10/21 05:24:46;;;;;;;101.65;34.13;;;;;;;;;;5033450;28;20259;-70
2022/10/21 05:27:11;;;;;;;86.63;33.47;;;;;;;;;;5039203;28;20185;-71
2022/10/21 05:29:37;;;;;;;84.00;35.08;;;;;;;;;;5035110;28;20178;-71
2022/10/21 05:32:02;;;;;;;91.32;34.65;;;;;;;;;;5034766;28;20239;-71
2022/10/21 05:34:28;;;;;;;86.68;35.10;;;;;;;;;;5034179;28;20193;-70
2022/10/21 05:36:53;;;;;;;82.55;33.58;;;;;;;;;;5033666;28;20206;-71
2022/10/21 05:39:18;;;;;;;89.63;34.72;;;;;;;;;;5029315;28;20182;-71
2022/10/21 05:41:44;;;;;;;75.30;32.42;;;;;;;;;;5029239;28;20221;-71
2022/10/21 05:44:10;;;;;;;78.13;32.45;;;;;;;;;;5032202;28;20186;-71
2022/10/21 05:46:35;;;;;;;79.38;32.72;;;;;;;;;;5032698;28;20182;-71
2022/10/21 05:49:03;;;;;;;89.05;33.20;;;;;;;;;;5028766;28;20554;-71
2022/10/21 05:51:29;;;;;;;85.90;32.92;;;;;;;;;;5031180;28;20194;-71
2022/10/21 05:53:57;;;;;;;87.25;33.92;;;;;;;;;;5032139;28;20256;-71
2022/10/21 05:56:22;;;;;;;65.03;29.60;;;;;;;;;;5029349;28;20697;-71
2022/10/21 05:58:48;;;;;;;68.75;29.60;;;;;;;;;;5040778;28;20186;-72
2022/10/21 06:01:13;;;;;;;85.78;32.55;;;;;;;;;;5030697;28;20686;-71
2022/10/21 06:03:38;;;;;;;77.22;32.65;;;;;;;;;;5036769;28;20268;-71
2022/10/21 06:06:06;;;;;;;88.90;33.80;;;;;;;;;;5044928;28;20192;-71
2022/10/21 06:08:34;;;;;;;83.28;33.47;;;;;;;;;;5037313;28;20178;-71
2022/10/21 06:11:08;;;;;;;72.07;32.28;;;;;;;;;;5033449;28;20291;-71
2022/10/21 06:13:34;;;;;;;72.38;30.98;;;;;;;;;;5043571;28;20208;-71
2022/10/21 06:16:00;;;;;;;80.30;32.25;;;;;;;;;;5039969;28;20186;-71
2022/10/21 06:18:26;;;;;;;77.32;33.30;;;;;;;;;;5040494;28;20181;-71
2022/10/21 06:20:51;;;;;;;80.20;32.95;;;;;;;;;;5044008;28;20182;-71
2022/10/21 06:23:17;;;;;;;67.10;31.10;;;;;;;;;;5031797;28;21471;-71
2022/10/21 06:25:52;;;;;;;83.97;33.22;;;;;;;;;;5037057;28;20208;-71
2022/10/21 06:28:18;;;;;;;74.00;32.33;;;;;;;;;;5036279;28;20227;-71
2022/10/21 06:30:43;;;;;;;84.40;34.20;;;;;;;;;;5035409;28;20213;-71
2022/10/21 06:33:08;;;;;;;78.72;32.70;;;;;;;;;;5037188;28;20237;-71
2022/10/21 06:35:33;;;;;;;78.50;32.88;;;;;;;;;;5036346;28;20185;-71
2022/10/21 06:37:59;;;;;;;89.70;34.35;;;;;;;;;;5042473;28;20543;-71
2022/10/21 06:40:24;;;;;;;91.30;34.85;;;;;;;;;;5041804;28;20259;-71
2022/10/21 06:42:50;;;;;;;93.05;34.33;;;;;;;;;;5036349;28;20263;-71
2022/10/21 06:45:15;;;;;;;84.53;33.20;;;;;;;;;;5035620;28;20960;-71
2022/10/21 06:47:40;;;;;;;80.13;32.10;;;;;;;;;;5032510;28;20193;-71
2022/10/21 06:50:06;;;;;;;82.55;32.55;;;;;;;;;;5033822;28;20328;-71
2022/10/21 06:52:32;;;;;;;72.35;30.55;;;;;;;;;;5032631;28;20210;-71
2022/10/21 06:54:57;;;;;;;81.82;31.60;;;;;;;;;;5037384;28;20251;-71
2022/10/21 06:57:23;;;;;;;66.33;27.17;;;;;;;;;;4343246;28;10021620;-72
2022/10/21 06:59:48;;;;;;;62.65;28.30;;;;;;;;;;5030221;28;20441;-71
2022/10/21 07:02:14;;;;;;;66.85;29.33;;;;;;;;;;5028304;28;20571;-71
2022/10/21 07:04:43;;;;;;;68.95;28.65;;;;;;;;;;5038690;28;20184;-71
2022/10/21 07:07:09;;;;;;;76.22;29.90;;;;;;;;;;5038423;28;20722;-70
2022/10/21 07:09:34;;;;;;;64.32;28.77;;;;;;;;;;5027810;28;20186;-71
2022/10/21 07:12:00;;;;;;;63.72;28.55;;;;;;;;;;5038466;28;20268;-70
2022/10/21 07:14:26;;;;;;;81.18;30.88;;;;;;;;;;5026255;28;20206;-70
2022/10/21 07:16:52;;;;;;;68.75;29.02;;;;;;;;;;5034504;28;20212;-71
2022/10/21 07:19:18;;;;;;;63.40;29.55;;;;;;;;;;5029803;28;20243;-71
2022/10/21 07:21:43;;;;;;;65.32;28.02;;;;;;;;;;5030347;28;20566;-71
2022/10/21 07:24:09;;;;;;;59.65;26.90;;;;;;;;;;5034449;28;20196;-71
2022/10/21 07:26:34;;;;;;;66.45;26.77;;;;;;;;;;5029734;28;20182;-71
2022/10/21 07:29:01;;;;;;;53.05;25.20;;;;;;;;;;5031225;28;20258;-71
2022/10/21 07:31:29;;;;;;;54.30;26.23;;;;;;;;;;5023900;28;20283;-71
2022/10/21 07:33:55;;;;;;;56.45;25.23;;;;;;;;;;5030268;28;20278;-71
2022/10/21 07:36:25;;;;;;;49.10;25.08;;;;;;;;;;5028900;28;20215;-72
2022/10/21 07:38:53;;;;;;;54.97;25.95;;;;;;;;;;5031625;28;20229;-70
2022/10/21 07:41:26;;;;;;;50.15;24.00;;;;;;;;;;5026145;28;20268;-70
2022/10/21 07:43:52;;;;;;;46.40;23.15;;;;;;;;;;5028585;28;20286;-70
2022/10/21 07:46:19;;;;;;;47.42;22.10;;;;;;;;;;5030196;28;20668;-70
2022/10/21 07:48:45;;;;;;;44.85;21.60;;;;;;;;;;5031071;28;20186;-70
2022/10/21 07:51:13;;;;;;;49.42;20.83;;;;;;;;;;5036376;28;20244;-70
2022/10/21 07:53:39;;;;;;;42.65;20.80;;;;;;;;;;5036884;28;20666;-70
2022/10/21 07:56:17;;;;;;;40.88;20.00;;;;;;;;;;5030697;28;20190;-70
2022/10/21 07:58:43;;;;;;;41.67;20.55;;;;;;;;;;5030203;28;20181;-70
2022/10/21 08:01:09;;;;;;;40.28;20.88;;;;;;;;;;5037764;28;20263;-70
2022/10/21 08:03:36;;;;;;;39.35;19.02;;;;;;;;;;5032054;28;20200;-70
2022/10/21 08:06:01;;;;;;;44.53;19.40;;;;;;;;;;5035295;28;20182;-70
2022/10/21 08:08:27;;;;;;;43.45;20.48;;;;;;;;;;5036959;28;20213;-70
2022/10/21 08:10:54;;;;;;;43.47;18.45;;;;;;;;;;5032409;28;20264;-70
2022/10/21 08:13:20;;;;;;;36.78;18.70;;;;;;;;;;5029453;28;20293;-70
2022/10/21 08:15:48;;;;;;;40.00;19.20;;;;;;;;;;5032554;28;20185;-70
2022/10/21 08:18:14;;;;;;;40.95;18.48;;;;;;;;;;5033162;28;20286;-70
2022/10/21 08:20:42;;;;;;;39.58;18.98;;;;;;;;;;5029440;28;20257;-70
2022/10/21 08:23:08;;;;;;;33.67;18.00;;;;;;;;;;5035405;28;20177;-70
2022/10/21 08:25:34;;;;;;;43.67;18.40;;;;;;;;;;5029564;28;20248;-70
2022/10/21 08:27:59;;;;;;;33.95;18.60;;;;;;;;;;5032745;28;20177;-70
2022/10/21 08:30:30;;;;;;;36.28;18.35;;;;;;;;;;5031344;28;20603;-70
2022/10/21 08:32:59;;;;;;;28.73;17.60;;;;;;;;;;5039446;28;20252;-70
2022/10/21 08:35:27;;;;;;;32.78;17.50;;;;;;;;;;5038813;28;20545;-70
2022/10/21 08:37:53;;;;;;;26.95;17.05;;;;;;;;;;5030951;28;20186;-70
2022/10/21 08:40:19;;;;;;;33.38;16.35;;;;;;;;;;5033195;28;20495;-70
2022/10/21 08:42:46;;;;;;;28.23;16.73;;;;;;;;;;5031042;28;20174;-70
2022/10/21 08:45:19;;;;;;;26.00;15.52;;;;;;;;;;5031665;28;20200;-70
2022/10/21 08:47:51;;;;;;;25.80;16.05;;;;;;;;;;5037715;28;20589;-70
2022/10/21 08:50:21;;;;;;;24.80;14.70;;;;;;;;;;5032209;28;20553;-70
2022/10/21 08:52:57;;;;;;;31.23;15.55;;;;;;;;;;5031126;28;20253;-70
2022/10/21 08:55:31;;;;;;;32.55;14.65;;;;;;;;;;5032901;28;20174;-70
2022/10/21 08:57:56;;;;;;;25.80;14.15;;;;;;;;;;5033152;28;20359;-69
2022/10/21 09:00:26;;;;;;;22.08;13.98;;;;;;;;;;5030014;28;20293;-70
2022/10/21 09:03:07;;;;;;;20.98;13.40;;;;;;;;;;5027733;28;20186;-70
2022/10/21 09:05:40;;;;;;;26.05;13.93;;;;;;;;;;5032041;28;20657;-70
2022/10/21 09:08:29;;;;;;;23.00;12.65;;;;;;;;;;5040958;28;20186;-70
2022/10/21 09:11:00;;;;;;;20.25;12.52;;;;;;;;;;5030234;28;20178;-70
2022/10/21 09:14:03;;;;;;;19.58;11.93;;;;;;;;;;5030019;28;20194;-70
2022/10/21 09:16:46;;;;;;;20.77;12.88;;;;;;;;;;5030997;28;20174;-70
2022/10/21 09:19:39;;;;;;;21.50;11.82;;;;;;;;;;5033489;28;20262;-70
2022/10/21 09:22:16;;;;;;;20.73;10.52;;;;;;;;;;5030805;28;20280;-70
2022/10/21 09:24:51;;;;;;;18.27;11.20;;;;;;;;;;5036632;28;20193;-70
2022/10/21 09:27:16;;;;;;;15.80;10.82;;;;;;;;;;5029207;28;20214;-70
2022/10/21 09:29:44;;;;;;;22.00;11.88;;;;;;;;;;5032109;28;20177;-70
2022/10/21 09:32:15;;;;;;;14.90;9.60;;;;;;;;;;5037196;28;20309;-70
2022/10/21 09:34:49;;;;;;;14.70;10.20;;;;;;;;;;5029787;28;20208;-70
2022/10/21 09:37:47;;;;;;;14.38;9.43;;;;;;;;;;5029547;28;20273;-70
2022/10/21 09:40:24;;;;;;;19.77;9.82;;;;;;;;;;5029832;28;20197;-70
2022/10/21 09:42:55;;;;;;;14.68;9.25;;;;;;;;;;5037140;28;20181;-70
2022/10/21 09:45:39;;;;;;;15.52;8.90;;;;;;;;;;5033493;28;20191;-69
2022/10/21 09:48:17;;;;;;;12.82;7.38;;;;;;;;;;5034549;28;20186;-70
2022/10/21 09:51:02;;;;;;;14.15;7.60;;;;;;;;;;5032788;28;20641;-70
2022/10/21 09:53:55;;;;;;;15.30;7.55;;;;;;;;;;5035242;28;21435;-70
2022/10/21 09:56:25;;;;;;;13.90;7.70;;;;;;;;;;5034983;28;20269;-70
2022/10/21 09:59:01;;;;;;;12.80;7.78;;;;;;;;;;5036793;28;20252;-70
2022/10/21 10:01:27;;;;;;;16.15;7.20;;;;;;;;;;5036667;28;20230;-70
2022/10/21 10:03:52;;;;;;;13.30;7.18;;;;;;;;;;5034525;28;20646;-70
2022/10/21 10:06:39;;;;;;;13.35;7.93;;;;;;;;;;5035342;28;20216;-68
2022/10/21 10:09:16;;;;;;;15.55;7.35;;;;;;;;;;5037225;28;20194;-69
2022/10/21 10:11:57;;;;;;;12.20;7.25;;;;;;;;;;4338486;28;10001002;-69
2022/10/21 10:14:28;;;;;;;13.48;7.05;;;;;;;;;;5033150;28;20201;-69
2022/10/21 10:16:54;;;;;;;12.18;7.28;;;;;;;;;;5038949;28;20196;-68
2022/10/21 10:19:27;;;;;;;12.98;7.80;;;;;;;;;;5045180;28;20181;-69
2022/10/21 10:22:25;;;;;;;14.00;6.28;;;;;;;;;;5034462;28;20193;-68
2022/10/21 10:24:51;;;;;;;10.05;6.65;;;;;;;;;;5022413;28;20247;-68
2022/10/21 10:27:22;;;;;;;11.85;7.05;;;;;;;;;;5045727;28;20193;-69
2022/10/21 10:29:59;;;;;;;8.25;6.45;;;;;;;;;;5043969;28;20174;-68
2022/10/21 10:32:30;;;;;;;12.80;7.13;;;;;;;;;;5040586;28;20217;-68
2022/10/21 10:34:59;;;;;;;9.98;7.20;;;;;;;;;;5037716;28;20186;-68
2022/10/21 10:37:27;;;;;;;13.32;7.18;;;;;;;;;;5041600;28;20185;-68
2022/10/21 10:39:57;;;;;;;10.90;7.03;;;;;;;;;;5034244;28;20756;-69
2022/10/21 10:42:50;;;;;;;12.90;6.35;;;;;;;;;;5037680;28;20190;-68
2022/10/21 10:45:19;;;;;;;12.18;6.15;;;;;;;;;;5037603;28;20857;-68
2022/10/21 10:47:53;;;;;;;8.80;6.22;;;;;;;;;;5038856;28;20189;-68
2022/10/21 10:50:45;;;;;;;11.38;6.57;;;;;;;;;;5035398;28;20189;-69
2022/10/21 10:53:31;;;;;;;10.68;6.35;;;;;;;;;;5035870;28;20627;-69
2022/10/21 10:56:12;;;;;;;10.32;6.68;;;;;;;;;;5043722;28;20189;-69
2022/10/21 10:58:44;;;;;;;15.55;6.57;;;;;;;;;;5035628;28;20192;-69
2022/10/21 11:01:15;;;;;;;11.95;6.10;;;;;;;;;;5037370;28;20189;-68
2022/10/21 11:03:47;;;;;;;12.63;6.05;;;;;;;;;;5045586;28;20188;-68
2022/10/21 11:06:16;;;;;;;11.02;6.20;;;;;;;;;;5035835;28;20200;-68
2022/10/21 11:08:47;;;;;;;12.50;6.45;;;;;;;;;;5035141;28;20186;-68
2022/10/21 11:11:27;;;;;;;17.95;6.60;;;;;;;;;;5028982;28;20246;-68
2022/10/21 11:13:52;;;;;;;12.98;6.40;;;;;;;;;;5028219;28;20217;-69
2022/10/21 11:16:26;;;;;;;11.70;6.15;;;;;;;;;;5029553;28;20190;-68
2022/10/21 11:19:11;;;;;;;8.77;6.68;;;;;;;;;;5029890;28;20186;-68
2022/10/21 11:21:44;;;;;;;11.93;6.30;;;;;;;;;;5037636;28;20568;-68
2022/10/21 11:24:15;;;;;;;16.75;6.28;;;;;;;;;;5027483;28;20626;-68
2022/10/21 11:26:55;;;;;;;11.30;6.43;;;;;;;;;;5038955;28;20185;-68
2022/10/21 11:29:43;;;;;;;16.48;6.00;;;;;;;;;;5032713;28;20186;-68
2022/10/21 11:32:59;;;;;;;10.13;6.10;;;;;;;;;;5039593;28;20241;-67
2022/10/21 11:36:02;;;;;;;13.15;6.32;;;;;;;;;;5028382;28;20212;-68
2022/10/21 11:39:00;;;;;;;9.52;5.63;;;;;;;;;;5034888;28;20185;-68
2022/10/21 11:41:35;;;;;;;11.35;6.57;;;;;;;;;;5029675;28;20669;-68
2022/10/21 11:44:29;;;;;;;14.68;6.00;;;;;;;;;;5029755;28;20215;-68
2022/10/21 11:47:28;;;;;;;9.98;5.55;;;;;;;;;;5033723;28;20222;-67
2022/10/21 11:50:06;;;;;;;8.35;4.75;;;;;;;;;;5041965;28;20295;-68
2022/10/21 11:53:11;;;;;;;9.80;5.05;;;;;;;;;;5033502;28;20192;-69
2022/10/21 11:56:04;;;;;;;8.77;4.60;;;;;;;;;;5032252;28;20186;-69
2022/10/21 11:59:04;;;;;;;13.82;5.10;;;;;;;;;;5036252;28;20189;-68
2022/10/21 12:01:52;;;;;;;8.38;4.00;;;;;;;;;;5035290;28;20271;-70
2022/10/21 12:04:46;;;;;;;11.20;4.68;;;;;;;;;;5031281;28;20187;-70
2022/10/21 12:07:32;;;;;;;16.10;4.32;;;;;;;;;;5034700;28;20194;-73
2022/10/21 12:10:06;;;;;;;10.70;4.38;;;;;;;;;;5032792;28;20178;-73
2022/10/21 12:12:38;;;;;;;8.48;3.92;;;;;;;;;;5032957;28;20190;-71
2022/10/21 12:15:13;;;;;;;7.30;3.63;;;;;;;;;;5038222;28;20257;-74
2022/10/21 12:17:39;;;;;;;5.53;3.30;;;;;;;;;;5033469;28;20236;-73
2022/10/21 12:20:13;;;;;;;6.03;3.38;;;;;;;;;;5034853;28;20189;-72
2022/10/21 12:22:39;;;;;;;8.95;3.70;;;;;;;;;;5033295;28;20262;-72
2022/10/21 12:25:11;;;;;;;5.47;3.47;;;;;;;;;;5030019;28;20269;-72
2022/10/21 12:27:51;;;;;;;9.05;3.88;;;;;;;;;;5029425;28;20285;-72
2022/10/21 12:30:36;;;;;;;5.15;3.97;;;;;;;;;;5034072;28;20248;-71
2022/10/21 12:33:19;;;;;;;10.68;3.88;;;;;;;;;;5030014;28;20226;-73
2022/10/21 12:36:10;;;;;;;10.52;4.20;;;;;;;;;;5031645;28;20182;-73
2022/10/21 12:38:44;;;;;;;10.65;3.78;;;;;;;;;;5036868;28;20223;-73
2022/10/21 12:41:22;;;;;;;8.35;4.40;;;;;;;;;;5032371;28;20189;-75
2022/10/21 12:43:59;;;;;;;15.30;5.22;;;;;;;;;;5038133;28;20537;-76
2022/10/21 12:46:26;;;;;;;11.30;5.07;;;;;;;;;;5030768;28;20645;-75
2022/10/21 12:48:53;;;;;;;11.60;4.68;;;;;;;;;;5033140;28;20665;-75
2022/10/21 12:51:31;;;;;;;9.40;4.88;;;;;;;;;;5034569;28;20538;-74
2022/10/21 12:54:06;;;;;;;7.22;4.32;;;;;;;;;;5042443;28;20217;-73
2022/10/21 12:56:34;;;;;;;8.13;4.20;;;;;;;;;;5031861;28;20189;-72
2022/10/21 12:59:05;;;;;;;6.30;4.40;;;;;;;;;;5038202;28;20474;-72
2022/10/21 13:01:45;;;;;;;7.68;4.63;;;;;;;;;;5035059;28;20182;-71
2022/10/21 13:04:32;;;;;;;8.18;4.70;;;;;;;;;;5033996;28;20226;-71
2022/10/21 13:07:03;;;;;;;9.25;4.75;;;;;;;;;;5032498;28;20285;-71
2022/10/21 13:09:49;;;;;;;12.73;4.65;;;;;;;;;;5037735;28;20185;-71
2022/10/21 13:12:22;;;;;;;14.98;4.72;;;;;;;;;;5038840;28;20193;-70
2022/10/21 13:15:14;;;;;;;10.80;4.68;;;;;;;;;;5033517;28;20201;-70
2022/10/21 13:17:54;;;;;;;7.85;4.63;;;;;;;;;;5040221;28;20264;-70
2022/10/21 13:20:19;;;;;;;9.95;4.45;;;;;;;;;;5039042;28;20223;-70
2022/10/21 13:22:56;;;;;;;9.98;4.88;;;;;;;;;;5036286;28;20178;-70
2022/10/21 13:25:27;;;;;;;7.40;5.03;;;;;;;;;;5036906;28;20199;-70
2022/10/21 13:28:10;;;;;;;9.75;5.05;;;;;;;;;;5038124;28;20578;-70
2022/10/21 13:30:57;;;;;;;11.27;5.13;;;;;;;;;;5034764;28;20186;-70
2022/10/21 13:33:26;;;;;;;8.98;4.90;;;;;;;;;;5033484;28;20225;-70
2022/10/21 13:36:00;;;;;;;5.50;4.57;;;;;;;;;;5027514;28;20676;-71
2022/10/21 13:38:44;;;;;;;9.15;5.07;;;;;;;;;;5029038;28;20178;-70
2022/10/21 13:41:28;;;;;;;10.02;5.75;;;;;;;;;;5030497;28;20277;-71
2022/10/21 13:43:56;;;;;;;9.43;5.20;;;;;;;;;;5035168;28;20204;-70
2022/10/21 13:46:36;;;;;;;8.82;5.15;;;;;;;;;;5032161;28;20645;-70
2022/10/21 13:49:02;;;;;;;10.98;5.78;;;;;;;;;;5034784;28;20549;-70
2022/10/21 13:51:31;;;;;;;8.68;5.10;;;;;;;;;;5037189;28;20190;-70
2022/10/21 13:53:59;;;;;;;10.30;5.65;;;;;;;;;;5034369;28;20685;-70
2022/10/21 13:56:29;;;;;;;10.27;6.10;;;;;;;;;;5032694;28;20646;-70
2022/10/21 13:58:55;;;;;;;11.20;5.68;;;;;;;;;;5032283;28;20174;-70
2022/10/21 14:01:25;;;;;;;10.77;6.03;;;;;;;;;;5027180;28;20194;-70
2022/10/21 14:03:51;;;;;;;8.98;6.07;;;;;;;;;;5029007;28;20273;-70
2022/10/21 14:06:24;;;;;;;9.40;6.10;;;;;;;;;;5041915;28;20190;-70
2022/10/21 14:08:52;;;;;;;13.48;5.55;;;;;;;;;;5037704;28;20182;-70
2022/10/21 14:11:21;;;;;;;15.27;6.22;;;;;;;;;;5028620;28;20535;-69
2022/10/21 14:13:49;;;;;;;9.50;6.40;;;;;;;;;;5032494;28;20206;-70
2022/10/21 14:16:24;;;;;;;9.43;6.25;;;;;;;;;;5030580;28;20189;-70
2022/10/21 14:18:50;;;;;;;11.82;6.72;;;;;;;;;;5046851;28;20546;-70
2022/10/21 14:21:22;;;;;;;10.57;6.18;;;;;;;;;;5030471;28;20190;-70
2022/10/21 14:23:48;;;;;;;11.40;6.63;;;;;;;;;;5040698;28;20883;-69
2022/10/21 14:26:14;;;;;;;13.23;6.68;;;;;;;;;;5039258;28;20204;-70
2022/10/21 14:28:40;;;;;;;11.88;6.95;;;;;;;;;;5033865;28;20178;-71
2022/10/21 14:31:11;;;;;;;11.25;7.32;;;;;;;;;;4342024;28;10000806;-70
2022/10/21 14:33:43;;;;;;;10.20;7.18;;;;;;;;;;5033550;28;20291;-71
2022/10/21 14:36:22;;;;;;;11.50;7.35;;;;;;;;;;5040246;28;20188;-70
2022/10/21 14:39:04;;;;;;;11.95;7.03;;;;;;;;;;5034744;28;20610;-70
2022/10/21 14:41:43;;;;;;;15.80;7.18;;;;;;;;;;5049213;28;20665;-70
2022/10/21 14:44:27;;;;;;;12.25;7.53;;;;;;;;;;5042696;28;20199;-70
2022/10/21 14:46:53;;;;;;;12.52;7.40;;;;;;;;;;5042401;28;20239;-70